Time;durP1;ratioP1;P1;durP2;ratioP2;P2;SDS_P1;SDS_P2;PMS_P1;PMS_P2;Temp;Humidity;BMP_temperature;BMP_pressure;BME280_temperature;BME280_humidity;BME280_pressure;Samples;Min_cycle;Max_cycle;Signal;HPM_P1;HPM_P2
2022/02/11 00:01:49;;;;;;;12.73;3.45;;;4.50;99.90;;;;;;5051865;28;20037;-52
2022/02/11 00:04:47;;;;;;;13.23;3.45;;;4.50;99.90;;;;;;5051903;28;20053;-53
2022/02/11 00:07:03;;;;;;;10.48;3.70;;;4.50;99.90;;;;;;5069385;28;20045;-54
2022/02/11 00:09:29;;;;;;;15.13;3.78;;;4.50;99.90;;;;;;5061972;28;20116;-53
2022/02/11 00:11:56;;;;;;;11.30;3.30;;;4.50;99.90;;;;;;5037899;28;20112;-50
2022/02/11 00:14:21;;;;;;;11.35;3.22;;;4.50;99.90;;;;;;5048240;28;20041;-51
2022/02/11 00:16:47;;;;;;;15.63;3.17;;;4.50;99.90;;;;;;5043830;28;20037;-54
2022/02/11 00:19:12;;;;;;;13.07;3.28;;;4.50;99.90;;;;;;5051870;28;20212;-53
2022/02/11 00:21:39;;;;;;;10.68;3.03;;;4.50;99.90;;;;;;5051828;28;20049;-54
2022/02/11 00:24:05;;;;;;;13.68;3.00;;;4.50;99.90;;;;;;5051610;28;20451;-54
2022/02/11 00:26:35;;;;;;;11.82;3.25;;;4.60;99.90;;;;;;5052689;28;20031;-52
2022/02/11 00:31:52;;;;;;;11.82;2.83;;;4.60;99.90;;;;;;5071719;28;20454;-53
2022/02/11 00:34:21;;;;;;;10.40;3.03;;;4.60;99.90;;;;;;5071663;28;20326;-52
2022/02/11 00:37:34;;;;;;;16.00;3.00;;;4.70;99.90;;;;;;5068861;28;20040;-50
2022/02/11 00:40:11;;;;;;;14.98;3.10;;;4.70;99.90;;;;;;5056570;28;20463;-50
2022/02/11 01:02:10;;;;;;;15.43;3.00;;;4.80;99.90;;;;;;5017162;28;20103;-51
2022/02/11 01:04:23;;;;;;;12.05;2.72;;;4.80;99.90;;;;;;5068755;28;20131;-54
2022/02/11 01:06:49;;;;;;;16.20;2.85;;;4.80;99.90;;;;;;5046381;28;20037;-52
2022/02/11 01:09:14;;;;;;;14.60;2.67;;;4.80;99.90;;;;;;5054968;28;20028;-51
2022/02/11 01:11:53;;;;;;;13.95;3.00;;;4.90;99.90;;;;;;5050984;28;20094;-54
2022/02/11 01:14:31;;;;;;;12.38;2.70;;;4.80;99.90;;;;;;5075115;28;20040;-51
2022/02/11 01:17:05;;;;;;;11.75;2.40;;;4.80;99.90;;;;;;5073664;28;20052;-50
2022/02/11 01:19:39;;;;;;;16.33;3.17;;;4.80;99.90;;;;;;5058310;28;20413;-54
2022/02/11 01:22:16;;;;;;;9.60;2.40;;;4.70;99.90;;;;;;5054988;28;20037;-54
2022/02/11 01:25:01;;;;;;;13.05;3.20;;;4.70;99.90;;;;;;5047029;28;20451;-53
2022/02/11 01:27:39;;;;;;;11.60;3.25;;;4.70;99.90;;;;;;5058069;28;20036;-53
2022/02/11 01:33:17;;;;;;;13.18;3.00;;;4.70;99.90;;;;;;5054746;28;20098;-52
2022/02/11 01:38:45;;;;;;;9.77;2.70;;;4.60;99.90;;;;;;5054717;28;20095;-53
2022/02/11 01:52:11;;;;;;;15.82;2.92;;;4.70;99.90;;;;;;5052124;28;20084;-53
2022/02/11 01:54:58;;;;;;;11.52;2.47;;;4.70;99.90;;;;;;5049079;28;20087;-50
2022/02/11 02:26:55;;;;;;;14.98;3.22;;;4.60;99.90;;;;;;5053501;28;20106;-50
2022/02/11 02:56:48;;;;;;;15.95;2.00;;;4.80;99.90;;;;;;5052977;28;20052;-50
2022/02/11 02:59:55;;;;;;;20.58;2.90;;;4.70;99.90;;;;;;5053903;28;20040;-53
2022/02/11 03:35:03;;;;;;;23.20;3.15;;;5.40;99.90;;;;;;5053839;28;20045;-51
2022/02/11 03:48:52;;;;;;;15.05;2.70;;;5.50;99.90;;;;;;5070841;28;20511;-52
2022/02/11 03:51:41;;;;;;;13.05;2.08;;;5.50;99.90;;;;;;5072107;28;20137;-53
2022/02/11 04:56:43;;;;;;;19.27;2.55;;;5.50;99.90;;;;;;5071134;28;20646;-50
2022/02/11 05:01:53;;;;;;;18.30;2.83;;;5.50;99.90;;;;;;5016802;28;20108;-54
2022/02/11 05:04:18;;;;;;;13.18;2.75;;;5.40;99.90;;;;;;5019405;28;20042;-54
2022/02/11 05:06:44;;;;;;;15.27;2.63;;;5.30;99.90;;;;;;5030986;28;20041;-56
2022/02/11 05:09:10;;;;;;;12.00;2.55;;;5.30;99.90;;;;;;5029233;28;20029;-52
2022/02/11 05:11:36;;;;;;;16.13;2.17;;;5.30;99.90;;;;;;5027020;28;20408;-54
2022/02/11 05:14:01;;;;;;;16.17;2.50;;;5.30;99.90;;;;;;5022624;28;20132;-54
2022/02/11 05:16:27;;;;;;;19.35;3.20;;;5.20;99.90;;;;;;5030814;28;20111;-55
2022/02/11 05:18:53;;;;;;;18.38;2.60;;;5.20;99.90;;;;;;5027192;28;20037;-53
2022/02/11 05:21:18;;;;;;;17.08;2.92;;;5.20;99.90;;;;;;5023790;28;20492;-55
2022/02/11 05:23:44;;;;;;;16.55;3.65;;;5.20;99.90;;;;;;5025729;28;20038;-55
2022/02/11 05:26:09;;;;;;;15.02;3.47;;;5.30;99.90;;;;;;5030637;28;20033;-53
2022/02/11 05:28:35;;;;;;;16.38;2.60;;;5.30;99.90;;;;;;5030783;28;20065;-52
2022/02/11 05:31:00;;;;;;;23.98;2.97;;;5.30;99.90;;;;;;5024465;28;20041;-53
2022/02/11 05:33:27;;;;;;;16.92;2.83;;;5.30;99.90;;;;;;5031330;28;20078;-55
2022/02/11 05:35:53;;;;;;;18.73;2.88;;;5.40;99.90;;;;;;5031017;28;20041;-53
2022/02/11 05:38:18;;;;;;;15.32;2.63;;;5.40;99.90;;;;;;5032271;28;20039;-53
2022/02/11 05:40:45;;;;;;;22.67;3.05;;;5.40;99.90;;;;;;5033887;28;20043;-53
2022/02/11 05:43:11;;;;;;;17.10;2.45;;;5.40;99.90;;;;;;5033934;28;20045;-53
2022/02/11 05:45:37;;;;;;;18.88;2.65;;;5.40;99.90;;;;;;5034353;28;20041;-52
2022/02/11 05:48:03;;;;;;;14.57;2.55;;;5.30;99.90;;;;;;5034378;28;20580;-54
2022/02/11 05:50:29;;;;;;;12.40;2.40;;;5.30;99.90;;;;;;5033759;28;20123;-53
2022/02/11 05:52:54;;;;;;;9.95;2.33;;;5.30;99.90;;;;;;5016747;28;20145;-54
2022/02/11 05:55:20;;;;;;;12.80;2.13;;;5.30;99.90;;;;;;5034415;28;20128;-53
2022/02/11 05:57:45;;;;;;;10.45;1.90;;;5.30;99.90;;;;;;5033151;28;20112;-54
2022/02/11 06:00:11;;;;;;;15.82;2.47;;;5.30;99.90;;;;;;5027612;28;20406;-53
2022/02/11 06:02:37;;;;;;;15.82;2.47;;;5.30;99.90;;;;;;5033914;28;20454;-52
2022/02/11 06:05:03;;;;;;;14.27;2.60;;;5.30;99.90;;;;;;5033347;28;20120;-52
2022/02/11 06:07:28;;;;;;;13.88;2.70;;;5.30;99.90;;;;;;5034243;28;20112;-53
2022/02/11 06:09:54;;;;;;;14.95;2.42;;;5.30;99.90;;;;;;5034041;28;20072;-54
2022/02/11 06:12:19;;;;;;;11.60;2.08;;;5.30;99.90;;;;;;5033382;28;20400;-55
2022/02/11 06:14:45;;;;;;;15.70;2.25;;;5.30;99.90;;;;;;5033839;28;20045;-53
2022/02/11 06:17:10;;;;;;;14.45;2.45;;;5.30;99.90;;;;;;5033090;28;20509;-52
2022/02/11 06:19:36;;;;;;;13.23;1.73;;;5.30;99.90;;;;;;5033872;28;20076;-53
2022/02/11 06:22:02;;;;;;;12.93;2.15;;;5.20;99.90;;;;;;5033870;28;20490;-52
2022/02/11 06:24:27;;;;;;;11.45;1.67;;;5.30;99.90;;;;;;5033882;28;20029;-52
2022/02/11 06:26:53;;;;;;;13.73;2.35;;;5.30;99.90;;;;;;5032029;28;20041;-52
2022/02/11 06:29:18;;;;;;;11.45;1.63;;;5.20;99.90;;;;;;5033651;28;20489;-53
2022/02/11 06:31:44;;;;;;;16.23;2.25;;;5.20;99.90;;;;;;5027221;28;20132;-52
2022/02/11 06:34:09;;;;;;;15.30;2.33;;;5.20;99.90;;;;;;5019017;28;20037;-53
2022/02/11 06:36:35;;;;;;;13.93;2.42;;;5.20;99.90;;;;;;5023814;28;20038;-55
2022/02/11 06:39:01;;;;;;;13.88;2.55;;;5.10;99.90;;;;;;5023927;28;20076;-52
2022/02/11 06:41:27;;;;;;;13.70;2.42;;;5.00;99.90;;;;;;5019616;28;20045;-54
2022/02/11 06:43:53;;;;;;;16.23;2.67;;;5.00;99.90;;;;;;5020295;28;20069;-55
2022/02/11 06:46:21;;;;;;;21.58;3.05;;;5.00;99.90;;;;;;5029925;28;20087;-53
2022/02/11 06:48:48;;;;;;;14.05;3.00;;;5.00;99.90;;;;;;5012589;28;20069;-54
2022/02/11 06:51:14;;;;;;;18.25;2.45;;;5.00;99.90;;;;;;5017502;28;20045;-55
2022/02/11 06:53:40;;;;;;;11.38;2.40;;;5.10;99.90;;;;;;5025965;28;20090;-52
2022/02/11 06:56:06;;;;;;;12.68;2.50;;;5.10;99.90;;;;;;5032719;28;20081;-52
2022/02/11 06:58:32;;;;;;;16.30;2.55;;;5.10;99.90;;;;;;5032769;28;20072;-54
2022/02/11 07:00:57;;;;;;;15.07;2.72;;;5.10;99.90;;;;;;5032905;28;20489;-55
2022/02/11 07:03:24;;;;;;;16.20;2.80;;;5.00;99.90;;;;;;5033957;28;20056;-55
2022/02/11 07:05:51;;;;;;;14.48;2.70;;;5.00;99.90;;;;;;5033235;28;20045;-55
2022/02/11 07:08:17;;;;;;;15.98;2.92;;;5.00;99.90;;;;;;5031742;28;20036;-55
2022/02/11 07:10:43;;;;;;;20.58;3.00;;;5.00;99.90;;;;;;5032833;28;20041;-53
2022/02/11 07:13:15;;;;;;;17.83;3.65;;;5.00;99.90;;;;;;5030570;28;20481;-55
2022/02/11 07:15:42;;;;;;;16.15;3.63;;;5.00;99.90;;;;;;5018125;28;20037;-54
2022/02/11 07:18:08;;;;;;;14.80;2.95;;;5.00;99.90;;;;;;5015796;28;20623;-54
2022/02/11 07:20:33;;;;;;;21.73;3.20;;;5.00;99.90;;;;;;5021906;28;20524;-56
2022/02/11 07:22:59;;;;;;;28.05;3.50;;;5.00;99.90;;;;;;5028431;28;20030;-55
2022/02/11 07:25:24;;;;;;;16.23;3.20;;;5.00;99.90;;;;;;5018418;28;20037;-56
2022/02/11 07:27:50;;;;;;;19.40;3.08;;;5.00;99.90;;;;;;5013928;28;20030;-55
2022/02/11 07:30:15;;;;;;;22.98;3.70;;;5.00;99.90;;;;;;5022560;28;20113;-56
2022/02/11 07:32:41;;;;;;;22.10;3.33;;;5.00;99.90;;;;;;5015440;28;20041;-56
2022/02/11 07:35:07;;;;;;;21.75;3.45;;;5.00;99.90;;;;;;5017905;28;20030;-55
2022/02/11 07:37:34;;;;;;;15.88;2.92;;;5.00;99.90;;;;;;5013857;28;20113;-56
2022/02/11 07:40:00;;;;;;;14.85;3.08;;;5.00;99.90;;;;;;5017557;28;20046;-56
2022/02/11 07:42:26;;;;;;;24.67;3.63;;;5.00;99.90;;;;;;5019572;28;20033;-56
2022/02/11 07:44:52;;;;;;;19.73;3.03;;;5.00;99.90;;;;;;5022070;28;20116;-56
2022/02/11 07:47:18;;;;;;;20.08;3.35;;;5.00;99.90;;;;;;5022354;28;20399;-57
2022/02/11 07:49:44;;;;;;;16.40;3.20;;;5.00;99.90;;;;;;5017771;28;20084;-56
2022/02/11 07:52:09;;;;;;;18.52;3.00;;;5.00;99.90;;;;;;5023905;28;20033;-54
2022/02/11 07:54:35;;;;;;;19.55;3.45;;;5.00;99.90;;;;;;5027701;28;20055;-54
2022/02/11 07:57:00;;;;;;;23.90;3.53;;;5.00;99.90;;;;;;5022657;28;20033;-56
2022/02/11 07:59:26;;;;;;;17.05;2.92;;;4.90;99.90;;;;;;5029595;28;20038;-56
2022/02/11 08:01:52;;;;;;;21.23;3.45;;;4.80;99.90;;;;;;5019549;28;20041;-56
2022/02/11 08:04:17;;;;;;;20.60;3.95;;;4.80;99.90;;;;;;5026185;28;20083;-55
2022/02/11 08:06:43;;;;;;;20.60;3.22;;;4.80;99.90;;;;;;5029749;28;20493;-54
2022/02/11 08:09:08;;;;;;;17.13;2.58;;;4.70;99.90;;;;;;5031641;28;20485;-54
2022/02/11 08:11:34;;;;;;;15.23;3.50;;;4.70;99.90;;;;;;5031168;28;20073;-56
2022/02/11 08:14:00;;;;;;;22.45;2.72;;;4.70;99.90;;;;;;5028254;28;20473;-53
2022/02/11 08:16:26;;;;;;;14.25;2.33;;;4.80;99.90;;;;;;5030992;28;20034;-55
2022/02/11 08:18:51;;;;;;;17.00;2.45;;;4.80;99.90;;;;;;5031526;28;20091;-54
2022/02/11 08:21:17;;;;;;;11.38;2.40;;;4.90;99.90;;;;;;5022749;28;20041;-56
2022/02/11 08:23:44;;;;;;;12.57;2.58;;;4.90;99.90;;;;;;5004309;28;20045;-54
2022/02/11 08:26:10;;;;;;;14.18;3.20;;;4.90;99.90;;;;;;5026510;28;20041;-56
2022/02/11 08:28:36;;;;;;;18.25;2.55;;;4.90;99.90;;;;;;5027750;28;20044;-53
2022/02/11 08:31:02;;;;;;;13.40;2.42;;;4.90;99.90;;;;;;5025340;28;20910;-55
2022/02/11 08:33:28;;;;;;;13.25;2.40;;;4.90;99.90;;;;;;5022813;28;20029;-56
2022/02/11 08:35:56;;;;;;;12.98;2.83;;;4.90;99.90;;;;;;5025151;28;20045;-55
2022/02/11 08:38:26;;;;;;;13.80;3.13;;;4.90;99.90;;;;;;5022103;28;20041;-56
2022/02/11 08:40:53;;;;;;;18.20;3.35;;;4.90;99.90;;;;;;5026502;28;20044;-56
2022/02/11 08:43:19;;;;;;;16.77;2.88;;;4.90;99.90;;;;;;5024833;28;20131;-55
2022/02/11 08:45:45;;;;;;;20.30;2.92;;;4.90;99.90;;;;;;5027598;28;20037;-56
2022/02/11 08:48:12;;;;;;;14.52;2.90;;;5.00;99.90;;;;;;5009758;28;20552;-56
2022/02/11 08:50:40;;;;;;;20.35;3.20;;;5.10;99.90;;;;;;5031181;28;20037;-56
2022/02/11 08:53:06;;;;;;;15.75;2.40;;;5.10;99.90;;;;;;5018146;28;20123;-53
2022/02/11 08:55:32;;;;;;;17.65;2.47;;;5.30;99.90;;;;;;5027143;28;20053;-54
2022/02/11 08:57:59;;;;;;;16.35;3.55;;;5.30;99.90;;;;;;5023691;28;20041;-56
2022/02/11 09:00:29;;;;;;;17.90;3.13;;;5.40;99.90;;;;;;5024927;28;20124;-54
2022/02/11 09:02:58;;;;;;;17.58;2.90;;;5.40;99.90;;;;;;5022632;28;20112;-54
2022/02/11 09:05:25;;;;;;;17.08;2.92;;;5.50;99.90;;;;;;5027472;28;20041;-54
2022/02/11 09:07:56;;;;;;;21.90;3.13;;;5.50;99.90;;;;;;5023868;28;20125;-54
2022/02/11 09:10:23;;;;;;;15.23;3.30;;;5.50;99.90;;;;;;5015764;28;20117;-55
2022/02/11 09:12:49;;;;;;;21.52;3.25;;;5.50;99.90;;;;;;5024818;28;20509;-56
2022/02/11 09:15:15;;;;;;;20.52;3.90;;;5.50;99.90;;;;;;5019031;28;20041;-56
2022/02/11 09:17:41;;;;;;;23.48;3.75;;;5.60;99.90;;;;;;5018445;28;20132;-56
2022/02/11 09:20:07;;;;;;;24.83;3.38;;;5.60;99.90;;;;;;5017849;28;20699;-54
2022/02/11 09:22:33;;;;;;;21.75;4.00;;;5.60;99.90;;;;;;5017867;28;20128;-55
2022/02/11 09:24:58;;;;;;;25.38;4.85;;;5.60;99.90;;;;;;5024975;28;20129;-54
2022/02/11 09:27:24;;;;;;;23.92;3.72;;;5.70;99.90;;;;;;5024619;28;20052;-54
2022/02/11 09:29:50;;;;;;;21.48;3.67;;;5.80;99.90;;;;;;5027797;28;20117;-56
2022/02/11 09:32:16;;;;;;;17.73;3.17;;;5.90;99.90;;;;;;5026101;28;20088;-50
2022/02/11 09:34:42;;;;;;;25.65;4.57;;;6.00;99.90;;;;;;5024704;28;20041;-54
2022/02/11 09:37:08;;;;;;;25.98;4.05;;;6.10;99.90;;;;;;5028321;28;20059;-55
2022/02/11 09:39:33;;;;;;;20.30;3.88;;;6.10;99.90;;;;;;5029434;28;20091;-59
2022/02/11 09:41:59;;;;;;;25.02;3.53;;;6.00;99.90;;;;;;5025628;28;20046;-52
2022/02/11 09:44:27;;;;;;;26.55;4.35;;;6.10;99.90;;;;;;5009415;28;20044;-54
2022/02/11 09:46:55;;;;;;;23.45;3.45;;;6.20;99.90;;;;;;4999530;28;20046;-55
2022/02/11 09:49:21;;;;;;;20.95;3.50;;;6.10;99.90;;;;;;5009908;28;20033;-55
2022/02/11 09:51:49;;;;;;;22.10;3.08;;;6.10;99.90;;;;;;5026790;28;20572;-54
2022/02/11 09:54:18;;;;;;;19.92;3.45;;;6.00;99.90;;;;;;5025577;28;20098;-55
2022/02/11 09:56:44;;;;;;;13.57;3.42;;;6.00;99.90;;;;;;5030026;28;20076;-55
2022/02/11 09:59:09;;;;;;;18.27;3.22;;;6.00;99.90;;;;;;5023647;28;20073;-56
2022/02/11 10:01:37;;;;;;;15.55;2.75;;;6.00;99.90;;;;;;5022571;28;20044;-55
2022/02/11 10:04:16;;;;;;;20.10;2.90;;;6.10;99.90;;;;;;5021542;28;20533;-54
2022/02/11 10:06:48;;;;;;;20.38;3.17;;;6.20;99.90;;;;;;5023515;28;20037;-56
2022/02/11 10:09:14;;;;;;;29.83;3.45;;;6.30;99.90;;;;;;5033506;28;20045;-56
2022/02/11 10:11:43;;;;;;;15.38;2.70;;;6.40;99.90;;;;;;5033364;28;20045;-56
2022/02/11 10:14:23;;;;;;;21.00;3.53;;;6.40;99.90;;;;;;5033792;28;20493;-55
2022/02/11 10:17:06;;;;;;;18.85;3.60;;;6.50;99.90;;;;;;5015984;28;20057;-56
2022/02/11 10:19:41;;;;;;;17.00;3.05;;;6.50;99.90;;;;;;5014198;28;20038;-55
2022/02/11 10:22:13;;;;;;;14.95;2.97;;;6.50;99.90;;;;;;5023786;28;20128;-55
2022/02/11 10:24:39;;;;;;;20.02;3.63;;;6.40;99.90;;;;;;5021506;28;20120;-56
2022/02/11 10:27:26;;;;;;;18.40;2.63;;;6.50;99.90;;;;;;5025473;28;20037;-54
2022/02/11 10:29:56;;;;;;;17.13;3.25;;;6.50;99.90;;;;;;5025891;28;20048;-55
2022/02/11 10:32:47;;;;;;;17.52;2.63;;;6.60;99.90;;;;;;5022395;28;20397;-55
2022/02/11 10:35:15;;;;;;;14.00;2.20;;;6.60;99.90;;;;;;5013182;28;20040;-56
2022/02/11 10:38:06;;;;;;;20.55;2.80;;;6.60;98.30;;;;;;5024426;28;20405;-56
2022/02/11 10:40:34;;;;;;;15.88;2.38;;;6.60;99.20;;;;;;5034238;28;20077;-54
2022/02/11 10:43:00;;;;;;;15.43;2.33;;;6.60;98.80;;;;;;5028573;28;20492;-55
2022/02/11 10:45:40;;;;;;;13.23;2.55;;;6.60;99.10;;;;;;5029934;28;20045;-56
2022/02/11 10:48:18;;;;;;;13.93;2.80;;;6.60;98.60;;;;;;5030137;28;20056;-55
2022/02/11 10:50:50;;;;;;;18.55;2.80;;;6.60;99.60;;;;;;4998767;28;20057;-55
2022/02/11 10:53:31;;;;;;;14.18;2.97;;;6.60;99.90;;;;;;5018745;28;20253;-55
2022/02/11 10:55:59;;;;;;;14.25;2.67;;;6.60;99.70;;;;;;5022404;28;20076;-56
2022/02/11 10:58:28;;;;;;;17.80;2.47;;;6.60;99.20;;;;;;5021679;28;20277;-55
2022/02/11 11:00:57;;;;;;;16.30;2.67;;;6.70;98.60;;;;;;5009151;28;20065;-56
2022/02/11 11:03:22;;;;;;;16.88;2.75;;;6.80;95.30;;;;;;5024460;28;20544;-56
2022/02/11 11:05:50;;;;;;;14.45;2.88;;;6.90;92.80;;;;;;5027612;28;20041;-56
2022/02/11 11:08:16;;;;;;;11.77;1.60;;;6.90;92.50;;;;;;5026376;28;20120;-61
2022/02/11 11:10:45;;;;;;;10.73;2.85;;;6.90;90.80;;;;;;5084080;22;20133;-55
2022/02/11 11:13:14;;;;;;;15.95;3.00;;;6.80;91.30;;;;;;5038125;28;20508;-54
2022/02/11 11:15:41;;;;;;;14.90;2.60;;;6.80;91.40;;;;;;5026460;28;20029;-55
2022/02/11 11:18:10;;;;;;;15.90;2.70;;;6.80;90.20;;;;;;5019145;28;20065;-53
2022/02/11 11:20:37;;;;;;;18.38;2.80;;;6.70;90.40;;;;;;5026096;28;20041;-56
2022/02/11 11:23:29;;;;;;;17.58;2.53;;;6.70;91.10;;;;;;5021362;28;20117;-57
2022/02/11 11:26:03;;;;;;;17.13;2.80;;;6.80;91.40;;;;;;5016249;28;20645;-55
2022/02/11 11:28:40;;;;;;;14.55;2.95;;;6.80;91.90;;;;;;5021637;28;20064;-54
2022/02/11 11:31:10;;;;;;;20.20;3.70;;;6.80;91.80;;;;;;5021076;28;20045;-54
2022/02/11 11:33:36;;;;;;;18.42;2.70;;;6.80;92.10;;;;;;5016731;28;20121;-54
2022/02/11 11:36:05;;;;;;;18.17;3.58;;;6.80;92.60;;;;;;5021461;28;20462;-54
2022/02/11 11:38:42;;;;;;;12.68;2.45;;;6.80;92.90;;;;;;5020296;28;20034;-54
2022/02/11 11:41:08;;;;;;;16.38;2.30;;;6.80;90.90;;;;;;5022775;28;20054;-56
2022/02/11 11:43:49;;;;;;;16.40;2.30;;;6.80;90.40;;;;;;5004425;28;20531;-54
2022/02/11 11:46:17;;;;;;;13.93;2.30;;;6.80;88.40;;;;;;5024647;28;20033;-54
2022/02/11 11:48:55;;;;;;;9.77;1.92;;;6.80;86.70;;;;;;5007002;28;20034;-53
2022/02/11 11:51:21;;;;;;;17.08;2.50;;;6.70;84.00;;;;;;5004416;28;20053;-54
2022/02/11 11:53:47;;;;;;;16.02;2.33;;;6.70;84.90;;;;;;5021089;28;20398;-55
2022/02/11 11:56:33;;;;;;;15.80;2.25;;;6.70;84.80;;;;;;5020086;28;20041;-54
2022/02/11 11:59:16;;;;;;;10.50;2.17;;;6.80;85.20;;;;;;5019701;28;20037;-54
2022/02/11 12:02:04;;;;;;;17.02;2.28;;;6.80;84.60;;;;;;5025103;28;20038;-54
2022/02/11 12:04:33;;;;;;;14.00;2.65;;;6.80;84.10;;;;;;5005366;28;20037;-57
2022/02/11 12:07:00;;;;;;;13.52;2.20;;;6.80;83.90;;;;;;5022009;28;20033;-54
2022/02/11 12:09:27;;;;;;;12.40;2.70;;;7.00;80.10;;;;;;5036216;28;20091;-55
2022/02/11 12:12:13;;;;;;;9.93;2.40;;;6.90;81.00;;;;;;5031666;28;20051;-54
2022/02/11 12:14:40;;;;;;;15.63;2.45;;;7.00;81.70;;;;;;5031174;28;20041;-53
2022/02/11 12:17:09;;;;;;;13.98;2.13;;;7.00;81.60;;;;;;5033201;28;20055;-51
2022/02/11 12:19:35;;;;;;;14.38;1.90;;;7.00;79.00;;;;;;5030074;28;20043;-52
2022/02/11 12:22:02;;;;;;;13.50;2.20;;;6.90;80.40;;;;;;5034867;28;20520;-54
2022/02/11 12:27:33;;;;;;;10.20;1.88;;;6.80;76.20;;;;;;4993095;28;20034;-49
2022/02/11 12:30:01;;;;;;;14.48;1.80;;;6.80;77.70;;;;;;5029338;28;20045;-51
2022/02/11 12:32:40;;;;;;;7.63;1.95;;;6.80;77.40;;;;;;5039784;28;20063;-50
2022/02/11 12:35:10;;;;;;;9.32;1.42;;;6.80;73.50;;;;;;5047419;28;20328;-48
2022/02/11 12:37:39;;;;;;;7.90;1.80;;;6.70;73.70;;;;;;5025835;28;20041;-49
2022/02/11 12:40:21;;;;;;;12.90;1.88;;;6.80;74.60;;;;;;5025952;28;20060;-55
2022/02/11 12:42:49;;;;;;;13.88;2.00;;;6.70;75.40;;;;;;5022441;28;20042;-49
2022/02/11 12:45:24;;;;;;;12.32;2.00;;;6.80;75.10;;;;;;5033839;28;20543;-48
2022/02/11 12:47:52;;;;;;;8.85;2.08;;;6.80;75.60;;;;;;5030843;28;20505;-49
2022/02/11 12:50:31;;;;;;;10.00;1.40;;;6.80;73.00;;;;;;5030442;28;20045;-48
2022/02/11 12:52:59;;;;;;;3.85;0.98;;;6.90;73.00;;;;;;5048843;28;20036;-48
2022/02/11 12:55:24;;;;;;;11.93;1.80;;;6.90;68.30;;;;;;5049392;28;20122;-50
2022/02/11 12:57:57;;;;;;;6.40;1.38;;;6.90;69.40;;;;;;5023581;28;20089;-51
2022/02/11 13:00:26;;;;;;;6.20;1.60;;;6.90;69.50;;;;;;5039050;28;20038;-53
2022/02/11 13:02:58;;;;;;;7.05;1.40;;;6.90;68.70;;;;;;5031361;28;20038;-49
2022/02/11 13:05:33;;;;;;;6.20;1.40;;;6.90;66.10;;;;;;5031078;28;20045;-48
2022/02/11 13:08:00;;;;;;;10.68;1.75;;;6.90;66.20;;;;;;5031204;28;20511;-52
2022/02/11 13:10:37;;;;;;;8.70;1.63;;;6.90;67.20;;;;;;5038874;28;20051;-48
2022/02/11 13:13:14;;;;;;;8.20;2.33;;;7.00;66.50;;;;;;5037520;28;20497;-50
2022/02/11 13:15:41;;;;;;;12.32;1.73;;;7.00;66.50;;;;;;5030570;28;20040;-48
2022/02/11 13:18:10;;;;;;;13.52;1.67;;;6.90;67.40;;;;;;5031044;28;20381;-48
2022/02/11 13:20:44;;;;;;;8.45;1.52;;;7.00;68.50;;;;;;5029328;28;20041;-48
2022/02/11 13:23:15;;;;;;;8.25;1.40;;;7.00;66.20;;;;;;5030885;28;20033;-47
2022/02/11 13:25:42;;;;;;;6.75;1.50;;;7.20;65.10;;;;;;5030413;28;20045;-51
2022/02/11 13:28:12;;;;;;;10.85;1.60;;;7.10;66.10;;;;;;5030744;28;20095;-49
2022/02/11 13:30:43;;;;;;;8.32;1.60;;;7.10;64.60;;;;;;5031010;28;20041;-48
2022/02/11 13:33:25;;;;;;;10.85;1.73;;;7.10;64.70;;;;;;5031451;28;20045;-48
2022/02/11 13:35:56;;;;;;;6.40;1.52;;;7.00;64.00;;;;;;5012025;28;20041;-48
2022/02/11 13:38:26;;;;;;;6.93;1.70;;;6.90;63.70;;;;;;5037465;28;20033;-48
2022/02/11 13:41:01;;;;;;;7.97;1.67;;;6.80;65.90;;;;;;5023713;28;20417;-48
2022/02/11 13:43:44;;;;;;;4.97;1.27;;;6.80;67.00;;;;;;5030522;28;20044;-49
2022/02/11 13:46:09;;;;;;;7.20;1.42;;;6.70;67.90;;;;;;5022032;28;20087;-48
2022/02/11 13:49:13;;;;;;;7.88;1.73;;;6.80;68.40;;;;;;5038321;28;20501;-48
2022/02/11 13:51:41;;;;;;;6.45;1.50;;;6.90;68.30;;;;;;5022187;28;20057;-51
2022/02/11 13:54:17;;;;;;;6.90;1.33;;;7.00;66.90;;;;;;5029859;28;20038;-52
2022/02/11 13:56:47;;;;;;;8.93;1.38;;;7.10;64.90;;;;;;5021053;28;20052;-50
2022/02/11 13:59:16;;;;;;;6.50;1.73;;;7.10;64.90;;;;;;5032507;28;20075;-50
2022/02/11 14:01:47;;;;;;;4.22;1.10;;;7.10;64.50;;;;;;5033364;28;20045;-52
2022/02/11 14:04:17;;;;;;;6.50;1.60;;;7.20;62.80;;;;;;5033655;28;20041;-53
2022/02/11 14:06:51;;;;;;;9.55;1.60;;;7.10;60.70;;;;;;5040989;28;20082;-51
2022/02/11 14:09:45;;;;;;;7.35;1.55;;;7.20;60.90;;;;;;5022927;28;20510;-52
2022/02/11 14:12:13;;;;;;;6.68;1.50;;;7.10;60.60;;;;;;5009959;28;20049;-52
2022/02/11 14:14:59;;;;;;;8.05;1.40;;;7.10;60.90;;;;;;5031715;28;20041;-51
2022/02/11 14:17:27;;;;;;;11.23;2.50;;;7.10;61.70;;;;;;5028312;28;20117;-53
2022/02/11 14:19:53;;;;;;;10.30;1.40;;;7.10;62.50;;;;;;5031293;28;20389;-53
2022/02/11 14:22:19;;;;;;;7.88;1.50;;;7.10;61.50;;;;;;5032515;28;20041;-50
2022/02/11 14:24:44;;;;;;;8.15;1.73;;;7.10;62.30;;;;;;5028306;28;20997;-53
2022/02/11 14:27:10;;;;;;;8.18;1.70;;;7.20;63.30;;;;;;5020022;28;20039;-49
2022/02/11 14:29:36;;;;;;;6.47;1.77;;;7.20;62.20;;;;;;5021941;28;20409;-50
2022/02/11 14:32:04;;;;;;;7.43;1.20;;;7.20;64.00;;;;;;5020797;28;20053;-49
2022/02/11 14:34:29;;;;;;;6.35;1.30;;;7.20;61.80;;;;;;5006977;28;20087;-51
2022/02/11 14:36:55;;;;;;;7.03;1.30;;;7.30;62.10;;;;;;5021648;28;20045;-52
2022/02/11 14:39:20;;;;;;;6.43;1.30;;;7.30;62.00;;;;;;5021702;28;20033;-54
2022/02/11 14:41:51;;;;;;;8.18;1.48;;;7.30;60.70;;;;;;5023047;28;20045;-52
2022/02/11 14:44:30;;;;;;;5.95;1.27;;;7.40;61.70;;;;;;5021648;28;20091;-50
2022/02/11 14:46:58;;;;;;;6.85;1.50;;;7.40;61.00;;;;;;5020649;28;20034;-53
2022/02/11 14:49:24;;;;;;;8.57;1.40;;;7.40;60.70;;;;;;5024654;28;20052;-49
2022/02/11 14:51:58;;;;;;;6.50;1.20;;;7.50;60.40;;;;;;5023175;28;20194;-52
2022/02/11 14:54:24;;;;;;;8.15;1.70;;;7.50;61.30;;;;;;5016160;28;20080;-51
2022/02/11 14:56:53;;;;;;;11.27;1.50;;;7.50;62.70;;;;;;5020978;28;20494;-53
2022/02/11 14:59:20;;;;;;;7.80;1.60;;;7.60;63.10;;;;;;5021123;28;20051;-49
2022/02/11 15:01:47;;;;;;;8.80;1.50;;;7.60;61.90;;;;;;5024513;28;20171;-48
2022/02/11 15:04:13;;;;;;;11.02;1.58;;;7.50;60.50;;;;;;5017843;28;20037;-49
2022/02/11 15:06:39;;;;;;;7.82;1.60;;;7.50;61.50;;;;;;5021350;28;20105;-53
2022/02/11 15:09:06;;;;;;;5.95;1.30;;;7.30;61.80;;;;;;5021647;28;20045;-51
2022/02/11 15:11:32;;;;;;;8.93;1.50;;;7.30;60.40;;;;;;5018119;28;20038;-48
2022/02/11 15:13:58;;;;;;;8.52;1.33;;;7.30;61.50;;;;;;5022096;28;20038;-48
2022/02/11 15:16:24;;;;;;;9.55;1.48;;;7.10;63.20;;;;;;5020296;28;20130;-51
2022/02/11 15:18:49;;;;;;;9.30;1.50;;;7.00;63.10;;;;;;5023709;28;20167;-48
2022/02/11 15:21:17;;;;;;;15.52;1.98;;;7.00;62.80;;;;;;5020213;28;20660;-49
2022/02/11 15:23:42;;;;;;;13.93;2.83;;;7.00;63.90;;;;;;5014627;28;20690;-49
2022/02/11 15:26:09;;;;;;;10.23;1.50;;;7.00;64.20;;;;;;5013930;28;20093;-49
2022/02/11 15:28:40;;;;;;;17.00;2.67;;;7.00;65.40;;;;;;5019288;28;20123;-51
2022/02/11 15:31:09;;;;;;;10.23;2.00;;;7.00;65.70;;;;;;5020147;28;20084;-50
2022/02/11 15:33:35;;;;;;;16.05;4.00;;;7.00;66.50;;;;;;5017442;28;20084;-51
2022/02/11 15:36:01;;;;;;;8.57;1.85;;;7.00;66.00;;;;;;5016355;28;20061;-51
2022/02/11 15:38:27;;;;;;;11.57;1.73;;;7.00;63.50;;;;;;5025327;28;20157;-48
2022/02/11 15:40:52;;;;;;;10.88;2.05;;;7.00;63.60;;;;;;5021179;28;20453;-51
2022/02/11 15:43:18;;;;;;;10.73;3.25;;;6.90;63.60;;;;;;5021836;28;20490;-51
2022/02/11 15:45:44;;;;;;;10.02;2.78;;;6.90;64.50;;;;;;5021327;28;20049;-51
2022/02/11 15:48:11;;;;;;;13.18;4.25;;;6.90;65.70;;;;;;5008572;28;20123;-51
2022/02/11 15:50:38;;;;;;;11.15;2.05;;;6.90;64.50;;;;;;5020736;28;20037;-50
2022/02/11 15:53:04;;;;;;;12.90;2.22;;;6.90;64.90;;;;;;5028117;28;20080;-51
2022/02/11 15:55:29;;;;;;;15.75;2.42;;;6.80;66.10;;;;;;5016763;28;20112;-48
2022/02/11 15:57:55;;;;;;;11.40;1.63;;;6.80;65.70;;;;;;5027649;28;20045;-49
2022/02/11 16:00:20;;;;;;;7.18;1.58;;;6.80;66.60;;;;;;5028193;28;20136;-50
2022/02/11 16:02:46;;;;;;;13.48;2.20;;;6.70;67.10;;;;;;5027473;28;20113;-51
2022/02/11 16:05:12;;;;;;;7.63;1.60;;;6.60;67.80;;;;;;5024298;28;20497;-51
2022/02/11 16:07:38;;;;;;;12.40;1.80;;;6.50;68.30;;;;;;5018747;28;20032;-52
2022/02/11 16:10:05;;;;;;;6.97;1.58;;;6.50;69.10;;;;;;5016538;28;20422;-49
2022/02/11 16:12:31;;;;;;;6.60;1.58;;;6.50;69.20;;;;;;5024013;28;20033;-48
2022/02/11 16:14:57;;;;;;;9.35;1.92;;;6.40;69.90;;;;;;5029928;28;20164;-48
2022/02/11 16:17:23;;;;;;;13.73;1.75;;;6.40;69.60;;;;;;5035950;28;20125;-52
2022/02/11 16:19:52;;;;;;;9.00;1.40;;;6.40;70.20;;;;;;5031108;28;20038;-48
2022/02/11 16:22:19;;;;;;;8.60;1.48;;;6.40;69.50;;;;;;5025728;28;20077;-49
2022/02/11 16:24:46;;;;;;;8.55;1.75;;;6.30;69.50;;;;;;5033211;28;20048;-48
2022/02/11 16:27:14;;;;;;;10.38;1.13;;;6.40;69.60;;;;;;5034416;28;20076;-52